Dover Foxcroft, Maine
Current Conditions -  °F | °C
As of 3:53 PM on Saturday 22 Nov 2014 (Local Time) from KBGR Reporting Station
Overcast Overcast  
Wind Chill: 22°   Ceiling: 15000
Heat Index: 30°   Visibility: 10mi
Dew Point: 14°   Wind: 9mph
Humidity: 51%   Direction: 200°SSW
Pressure: 29.99"   Gusts: NA
Location:  45.19°N, 69.23°W
Report Text: KBGR 222053Z 20008KT 10SM SCT120 BKN150 OVC250 M01/M10 A2999 RMK AO2 SLP161 T10111100 56031
Loading
Personal Weather Stations






























Interactive Weather Map New forecast layout! Learn more

10-Day Weather Forecast

Advertisements
Track Severe Weather on mobile